sensor_id;sensor_type;location;lat;lon;timestamp;P1;P2;P0
66155;PMS5003;52957;50.848;20.656;2024-01-30T00:00:02;79;64;38
66155;PMS5003;52957;50.848;20.656;2024-01-30T00:10:12;93;82;49
66155;PMS5003;52957;50.848;20.656;2024-01-30T00:20:09;93;82;49
66155;PMS5003;52957;50.848;20.656;2024-01-30T00:30:02;93;82;49
66155;PMS5003;52957;50.848;20.656;2024-01-30T00:40:02;81;63;39
66155;PMS5003;52957;50.848;20.656;2024-01-30T00:50:15;81;63;39
66155;PMS5003;52957;50.848;20.656;2024-01-30T01:00:21;81;63;39
66155;PMS5003;52957;50.848;20.656;2024-01-30T01:10:04;75;60;37
66155;PMS5003;52957;50.848;20.656;2024-01-30T01:20:07;75;60;37
66155;PMS5003;52957;50.848;20.656;2024-01-30T01:30:02;75;60;37
66155;PMS5003;52957;50.848;20.656;2024-01-30T01:40:07;86;69;41
66155;PMS5003;52957;50.848;20.656;2024-01-30T01:50:02;86;69;41
66155;PMS5003;52957;50.848;20.656;2024-01-30T02:00:11;86;69;41
66155;PMS5003;52957;50.848;20.656;2024-01-30T02:10:17;84;67;39
66155;PMS5003;52957;50.848;20.656;2024-01-30T02:20:02;84;67;39
66155;PMS5003;52957;50.848;20.656;2024-01-30T02:30:18;84;67;39
66155;PMS5003;52957;50.848;20.656;2024-01-30T02:40:09;84;66;38
66155;PMS5003;52957;50.848;20.656;2024-01-30T02:50:10;84;66;38
66155;PMS5003;52957;50.848;20.656;2024-01-30T03:00:10;84;66;38
66155;PMS5003;52957;50.848;20.656;2024-01-30T03:10:14;79;63;38
66155;PMS5003;52957;50.848;20.656;2024-01-30T03:20:11;79;63;38
66155;PMS5003;52957;50.848;20.656;2024-01-30T03:30:16;79;63;38
66155;PMS5003;52957;50.848;20.656;2024-01-30T03:40:13;81;65;38
66155;PMS5003;52957;50.848;20.656;2024-01-30T03:50:13;81;65;38
66155;PMS5003;52957;50.848;20.656;2024-01-30T04:00:14;81;65;38
66155;PMS5003;52957;50.848;20.656;2024-01-30T04:10:13;72;55;33
66155;PMS5003;52957;50.848;20.656;2024-01-30T04:20:11;72;55;33
66155;PMS5003;52957;50.848;20.656;2024-01-30T04:30:10;72;55;33
66155;PMS5003;52957;50.848;20.656;2024-01-30T04:40:11;70;56;35
66155;PMS5003;52957;50.848;20.656;2024-01-30T04:50:06;70;56;35
66155;PMS5003;52957;50.848;20.656;2024-01-30T05:00:02;70;56;35
66155;PMS5003;52957;50.848;20.656;2024-01-30T05:10:14;72;57;34
66155;PMS5003;52957;50.848;20.656;2024-01-30T05:20:02;72;57;34
66155;PMS5003;52957;50.848;20.656;2024-01-30T05:30:14;72;57;34
66155;PMS5003;52957;50.848;20.656;2024-01-30T05:40:06;81;59;36
66155;PMS5003;52957;50.848;20.656;2024-01-30T05:50:05;81;59;36
66155;PMS5003;52957;50.848;20.656;2024-01-30T06:00:09;81;59;36
66155;PMS5003;52957;50.848;20.656;2024-01-30T06:10:15;73;57;34
66155;PMS5003;52957;50.848;20.656;2024-01-30T06:20:13;73;57;34
66155;PMS5003;52957;50.848;20.656;2024-01-30T06:30:17;73;57;34
66155;PMS5003;52957;50.848;20.656;2024-01-30T06:40:14;76;60;36
66155;PMS5003;52957;50.848;20.656;2024-01-30T06:50:02;76;60;36
66155;PMS5003;52957;50.848;20.656;2024-01-30T07:00:16;76;60;36
66155;PMS5003;52957;50.848;20.656;2024-01-30T07:10:14;78;62;34
66155;PMS5003;52957;50.848;20.656;2024-01-30T07:20:10;78;62;34
66155;PMS5003;52957;50.848;20.656;2024-01-30T07:30:17;78;62;34
66155;PMS5003;52957;50.848;20.656;2024-01-30T07:40:05;68;53;33
66155;PMS5003;52957;50.848;20.656;2024-01-30T07:50:02;68;53;33
66155;PMS5003;52957;50.848;20.656;2024-01-30T08:00:09;68;53;33
66155;PMS5003;52957;50.848;20.656;2024-01-30T08:10:05;71;55;30
66155;PMS5003;52957;50.848;20.656;2024-01-30T08:20:17;71;55;30
66155;PMS5003;52957;50.848;20.656;2024-01-30T08:30:09;71;55;30
66155;PMS5003;52957;50.848;20.656;2024-01-30T08:40:16;58;46;27
66155;PMS5003;52957;50.848;20.656;2024-01-30T08:50:05;58;46;27
66155;PMS5003;52957;50.848;20.656;2024-01-30T09:00:07;58;46;27
66155;PMS5003;52957;50.848;20.656;2024-01-30T09:10:12;59;46;26
66155;PMS5003;52957;50.848;20.656;2024-01-30T09:20:12;59;46;26
66155;PMS5003;52957;50.848;20.656;2024-01-30T09:30:12;59;46;26
66155;PMS5003;52957;50.848;20.656;2024-01-30T09:50:17;47;37;22
66155;PMS5003;52957;50.848;20.656;2024-01-30T10:00:08;47;37;22
66155;PMS5003;52957;50.848;20.656;2024-01-30T10:20:19;44;37;21
66155;PMS5003;52957;50.848;20.656;2024-01-30T10:30:12;44;37;21
66155;PMS5003;52957;50.848;20.656;2024-01-30T10:50:17;39;33;20
66155;PMS5003;52957;50.848;20.656;2024-01-30T11:00:24;39;33;20
66155;PMS5003;52957;50.848;20.656;2024-01-30T11:10:15;39;33;20
66155;PMS5003;52957;50.848;20.656;2024-01-30T11:20:12;39;33;20
66155;PMS5003;52957;50.848;20.656;2024-01-30T11:30:20;39;33;20
66155;PMS5003;52957;50.848;20.656;2024-01-30T11:40:27;25;24;16
66155;PMS5003;52957;50.848;20.656;2024-01-30T11:50:11;25;24;16
66155;PMS5003;52957;50.848;20.656;2024-01-30T12:00:23;25;24;16
66155;PMS5003;52957;50.848;20.656;2024-01-30T12:10:14;29;26;15
66155;PMS5003;52957;50.848;20.656;2024-01-30T12:20:28;29;26;15
66155;PMS5003;52957;50.848;20.656;2024-01-30T12:30:12;29;26;15
66155;PMS5003;52957;50.848;20.656;2024-01-30T12:40:14;32;30;16
66155;PMS5003;52957;50.848;20.656;2024-01-30T12:50:10;32;30;16
66155;PMS5003;52957;50.848;20.656;2024-01-30T13:00:04;32;30;16
66155;PMS5003;52957;50.848;20.656;2024-01-30T13:10:13;24;23;16
66155;PMS5003;52957;50.848;20.656;2024-01-30T13:20:12;24;23;16
66155;PMS5003;52957;50.848;20.656;2024-01-30T13:30:14;24;23;16
66155;PMS5003;52957;50.848;20.656;2024-01-30T13:40:10;46;36;21
66155;PMS5003;52957;50.848;20.656;2024-01-30T13:50:08;46;36;21
66155;PMS5003;52957;50.848;20.656;2024-01-30T14:00:16;46;36;21
66155;PMS5003;52957;50.848;20.656;2024-01-30T14:10:13;41;35;21
66155;PMS5003;52957;50.848;20.656;2024-01-30T14:20:17;41;35;21
66155;PMS5003;52957;50.848;20.656;2024-01-30T14:30:05;41;35;21
66155;PMS5003;52957;50.848;20.656;2024-01-30T14:40:07;41;36;24
66155;PMS5003;52957;50.848;20.656;2024-01-30T14:50:02;41;36;24
66155;PMS5003;52957;50.848;20.656;2024-01-30T15:00:06;41;36;24
66155;PMS5003;52957;50.848;20.656;2024-01-30T15:10:17;61;47;28
66155;PMS5003;52957;50.848;20.656;2024-01-30T15:20:09;61;47;28
66155;PMS5003;52957;50.848;20.656;2024-01-30T15:30:15;61;47;28
66155;PMS5003;52957;50.848;20.656;2024-01-30T15:40:12;76;60;34
66155;PMS5003;52957;50.848;20.656;2024-01-30T15:50:10;76;60;34
66155;PMS5003;52957;50.848;20.656;2024-01-30T16:00:19;76;60;34
66155;PMS5003;52957;50.848;20.656;2024-01-30T16:10:09;81;68;39
66155;PMS5003;52957;50.848;20.656;2024-01-30T16:20:06;81;68;39
66155;PMS5003;52957;50.848;20.656;2024-01-30T16:30:15;81;68;39
66155;PMS5003;52957;50.848;20.656;2024-01-30T16:50:16;75;58;35
66155;PMS5003;52957;50.848;20.656;2024-01-30T17:00:15;75;58;35
66155;PMS5003;52957;50.848;20.656;2024-01-30T17:20:12;83;69;38
66155;PMS5003;52957;50.848;20.656;2024-01-30T17:30:21;83;69;38
66155;PMS5003;52957;50.848;20.656;2024-01-30T17:40:11;83;69;38
66155;PMS5003;52957;50.848;20.656;2024-01-30T17:50:12;78;67;37
66155;PMS5003;52957;50.848;20.656;2024-01-30T18:00:15;78;67;37
66155;PMS5003;52957;50.848;20.656;2024-01-30T18:10:13;78;67;37
66155;PMS5003;52957;50.848;20.656;2024-01-30T18:20:08;80;63;37
66155;PMS5003;52957;50.848;20.656;2024-01-30T18:30:14;80;63;37
66155;PMS5003;52957;50.848;20.656;2024-01-30T18:40:12;80;63;37
66155;PMS5003;52957;50.848;20.656;2024-01-30T18:50:07;83;68;39
66155;PMS5003;52957;50.848;20.656;2024-01-30T19:00:12;83;68;39
66155;PMS5003;52957;50.848;20.656;2024-01-30T19:10:09;83;68;39
66155;PMS5003;52957;50.848;20.656;2024-01-30T19:20:11;73;57;35
66155;PMS5003;52957;50.848;20.656;2024-01-30T19:30:09;73;57;35
66155;PMS5003;52957;50.848;20.656;2024-01-30T19:40:15;73;57;35
66155;PMS5003;52957;50.848;20.656;2024-01-30T19:50:15;83;71;40
66155;PMS5003;52957;50.848;20.656;2024-01-30T20:00:11;83;71;40
66155;PMS5003;52957;50.848;20.656;2024-01-30T20:10:06;83;71;40
66155;PMS5003;52957;50.848;20.656;2024-01-30T20:20:08;62;51;31
66155;PMS5003;52957;50.848;20.656;2024-01-30T20:30:06;62;51;31
66155;PMS5003;52957;50.848;20.656;2024-01-30T20:40:09;62;51;31
66155;PMS5003;52957;50.848;20.656;2024-01-30T20:50:07;73;57;33
66155;PMS5003;52957;50.848;20.656;2024-01-30T21:00:15;73;57;33
66155;PMS5003;52957;50.848;20.656;2024-01-30T21:10:04;73;57;33
66155;PMS5003;52957;50.848;20.656;2024-01-30T21:20:02;98;78;40
66155;PMS5003;52957;50.848;20.656;2024-01-30T21:30:16;98;78;40
66155;PMS5003;52957;50.848;20.656;2024-01-30T21:40:18;98;78;40
66155;PMS5003;52957;50.848;20.656;2024-01-30T21:50:04;86;68;39
66155;PMS5003;52957;50.848;20.656;2024-01-30T22:00:02;86;68;39
66155;PMS5003;52957;50.848;20.656;2024-01-30T22:10:13;86;68;39
66155;PMS5003;52957;50.848;20.656;2024-01-30T22:20:05;107;94;53
66155;PMS5003;52957;50.848;20.656;2024-01-30T22:30:12;107;94;53
66155;PMS5003;52957;50.848;20.656;2024-01-30T22:40:13;107;94;53
66155;PMS5003;52957;50.848;20.656;2024-01-30T22:50:05;55;43;29
66155;PMS5003;52957;50.848;20.656;2024-01-30T23:00:26;55;43;29
66155;PMS5003;52957;50.848;20.656;2024-01-30T23:10:13;65;51;29
66155;PMS5003;52957;50.848;20.656;2024-01-30T23:20:06;65;51;29
66155;PMS5003;52957;50.848;20.656;2024-01-30T23:30:05;65;51;29
66155;PMS5003;52957;50.848;20.656;2024-01-30T23:40:18;55;45;27
66155;PMS5003;52957;50.848;20.656;2024-01-30T23:50:13;55;45;27
